sensor_id;sensor_type;location;lat;lon;timestamp;P1;durP1;ratioP1;P2;durP2;ratioP2
24409;SDS011;12543;53.364;-1.504;2022-09-03T00:00:57;2.30;;;1.67;;
24409;SDS011;12543;53.364;-1.504;2022-09-03T00:06:15;2.50;;;1.77;;
24409;SDS011;12543;53.364;-1.504;2022-09-03T00:11:42;3.33;;;1.40;;
24409;SDS011;12543;53.364;-1.504;2022-09-03T00:14:18;2.70;;;1.70;;
24409;SDS011;12543;53.364;-1.504;2022-09-03T00:17:02;2.55;;;1.75;;
24409;SDS011;12543;53.364;-1.504;2022-09-03T00:19:41;2.25;;;1.70;;
24409;SDS011;12543;53.364;-1.504;2022-09-03T00:22:15;3.15;;;1.75;;
24409;SDS011;12543;53.364;-1.504;2022-09-03T00:24:47;2.45;;;2.08;;
24409;SDS011;12543;53.364;-1.504;2022-09-03T00:29:49;4.13;;;2.30;;
24409;SDS011;12543;53.364;-1.504;2022-09-03T00:32:35;2.60;;;2.13;;
24409;SDS011;12543;53.364;-1.504;2022-09-03T00:35:08;5.05;;;2.53;;
24409;SDS011;12543;53.364;-1.504;2022-09-03T00:37:42;3.88;;;2.00;;
24409;SDS011;12543;53.364;-1.504;2022-09-03T00:40:15;2.03;;;1.83;;
24409;SDS011;12543;53.364;-1.504;2022-09-03T00:43:00;2.65;;;2.10;;
24409;SDS011;12543;53.364;-1.504;2022-09-03T00:45:40;2.65;;;2.00;;
24409;SDS011;12543;53.364;-1.504;2022-09-03T00:48:21;3.28;;;2.30;;
24409;SDS011;12543;53.364;-1.504;2022-09-03T01:01:34;3.33;;;2.40;;
24409;SDS011;12543;53.364;-1.504;2022-09-03T01:12:08;3.13;;;2.17;;
24409;SDS011;12543;53.364;-1.504;2022-09-03T01:14:57;3.72;;;2.55;;
24409;SDS011;12543;53.364;-1.504;2022-09-03T01:20:36;3.95;;;2.42;;
24409;SDS011;12543;53.364;-1.504;2022-09-03T01:23:24;3.63;;;2.22;;
24409;SDS011;12543;53.364;-1.504;2022-09-03T01:29:07;2.70;;;2.13;;
24409;SDS011;12543;53.364;-1.504;2022-09-03T01:31:55;2.40;;;2.20;;
24409;SDS011;12543;53.364;-1.504;2022-09-03T01:47:50;3.17;;;2.05;;
24409;SDS011;12543;53.364;-1.504;2022-09-03T01:50:27;3.35;;;2.20;;
24409;SDS011;12543;53.364;-1.504;2022-09-03T01:56:09;3.47;;;2.70;;
24409;SDS011;12543;53.364;-1.504;2022-09-03T01:58:45;2.95;;;2.65;;
24409;SDS011;12543;53.364;-1.504;2022-09-03T02:01:20;3.15;;;2.35;;
24409;SDS011;12543;53.364;-1.504;2022-09-03T02:03:55;5.55;;;2.88;;
24409;SDS011;12543;53.364;-1.504;2022-09-03T02:06:26;5.72;;;3.45;;
24409;SDS011;12543;53.364;-1.504;2022-09-03T02:08:57;3.05;;;2.22;;
24409;SDS011;12543;53.364;-1.504;2022-09-03T02:11:24;3.75;;;2.78;;
24409;SDS011;12543;53.364;-1.504;2022-09-03T02:13:52;3.05;;;2.17;;
24409;SDS011;12543;53.364;-1.504;2022-09-03T02:16:24;4.68;;;2.67;;
24409;SDS011;12543;53.364;-1.504;2022-09-03T02:18:58;3.42;;;2.30;;
24409;SDS011;12543;53.364;-1.504;2022-09-03T02:21:32;4.43;;;2.20;;
24409;SDS011;12543;53.364;-1.504;2022-09-03T02:24:02;2.58;;;2.30;;
24409;SDS011;12543;53.364;-1.504;2022-09-03T02:26:31;2.50;;;2.22;;
24409;SDS011;12543;53.364;-1.504;2022-09-03T02:28:58;3.42;;;2.60;;
24409;SDS011;12543;53.364;-1.504;2022-09-03T02:31:28;2.42;;;2.22;;
24409;SDS011;12543;53.364;-1.504;2022-09-03T02:33:55;4.35;;;2.40;;
24409;SDS011;12543;53.364;-1.504;2022-09-03T02:36:27;4.20;;;2.75;;
24409;SDS011;12543;53.364;-1.504;2022-09-03T02:39:00;3.28;;;2.60;;
24409;SDS011;12543;53.364;-1.504;2022-09-03T02:41:27;3.63;;;2.50;;
24409;SDS011;12543;53.364;-1.504;2022-09-03T02:44:00;2.85;;;2.22;;
24409;SDS011;12543;53.364;-1.504;2022-09-03T02:47:01;5.47;;;2.28;;
24409;SDS011;12543;53.364;-1.504;2022-09-03T02:49:30;3.70;;;2.63;;
24409;SDS011;12543;53.364;-1.504;2022-09-03T02:51:58;3.17;;;2.72;;
24409;SDS011;12543;53.364;-1.504;2022-09-03T02:54:27;3.30;;;2.83;;
24409;SDS011;12543;53.364;-1.504;2022-09-03T02:56:54;3.63;;;2.65;;
24409;SDS011;12543;53.364;-1.504;2022-09-03T02:59:21;3.13;;;2.67;;
24409;SDS011;12543;53.364;-1.504;2022-09-03T03:01:48;3.42;;;2.83;;
24409;SDS011;12543;53.364;-1.504;2022-09-03T03:04:15;3.17;;;2.70;;
24409;SDS011;12543;53.364;-1.504;2022-09-03T03:06:42;3.33;;;3.03;;
24409;SDS011;12543;53.364;-1.504;2022-09-03T03:09:13;3.00;;;2.75;;
24409;SDS011;12543;53.364;-1.504;2022-09-03T03:11:40;2.80;;;2.55;;
24409;SDS011;12543;53.364;-1.504;2022-09-03T03:14:07;3.08;;;2.78;;
24409;SDS011;12543;53.364;-1.504;2022-09-03T03:16:34;2.75;;;2.55;;
24409;SDS011;12543;53.364;-1.504;2022-09-03T03:19:01;2.70;;;2.43;;
24409;SDS011;12543;53.364;-1.504;2022-09-03T03:21:29;2.42;;;2.22;;
24409;SDS011;12543;53.364;-1.504;2022-09-03T03:23:56;2.90;;;2.55;;
24409;SDS011;12543;53.364;-1.504;2022-09-03T03:26:23;2.80;;;2.60;;
24409;SDS011;12543;53.364;-1.504;2022-09-03T03:28:54;3.70;;;3.03;;
24409;SDS011;12543;53.364;-1.504;2022-09-03T03:31:22;4.03;;;2.95;;
24409;SDS011;12543;53.364;-1.504;2022-09-03T03:33:54;4.30;;;2.97;;
24409;SDS011;12543;53.364;-1.504;2022-09-03T03:36:23;3.33;;;3.03;;
24409;SDS011;12543;53.364;-1.504;2022-09-03T03:38:53;3.40;;;3.10;;
24409;SDS011;12543;53.364;-1.504;2022-09-03T03:41:22;3.85;;;3.13;;
24409;SDS011;12543;53.364;-1.504;2022-09-03T03:43:51;3.83;;;3.33;;
24409;SDS011;12543;53.364;-1.504;2022-09-03T03:46:23;4.28;;;3.08;;
24409;SDS011;12543;53.364;-1.504;2022-09-03T03:48:53;4.85;;;3.70;;
24409;SDS011;12543;53.364;-1.504;2022-09-03T03:51:20;3.53;;;3.15;;
24409;SDS011;12543;53.364;-1.504;2022-09-03T03:53:48;4.18;;;3.50;;
24409;SDS011;12543;53.364;-1.504;2022-09-03T03:56:15;6.13;;;3.35;;
24409;SDS011;12543;53.364;-1.504;2022-09-03T03:58:42;3.95;;;3.50;;
24409;SDS011;12543;53.364;-1.504;2022-09-03T04:01:13;3.53;;;3.22;;
24409;SDS011;12543;53.364;-1.504;2022-09-03T04:03:45;3.72;;;3.42;;
24409;SDS011;12543;53.364;-1.504;2022-09-03T04:06:14;6.38;;;4.50;;
24409;SDS011;12543;53.364;-1.504;2022-09-03T04:08:43;5.18;;;4.45;;
24409;SDS011;12543;53.364;-1.504;2022-09-03T04:11:13;5.18;;;4.68;;
24409;SDS011;12543;53.364;-1.504;2022-09-03T04:13:42;6.38;;;5.13;;
24409;SDS011;12543;53.364;-1.504;2022-09-03T04:16:28;5.78;;;4.75;;
24409;SDS011;12543;53.364;-1.504;2022-09-03T04:18:57;5.55;;;4.72;;
24409;SDS011;12543;53.364;-1.504;2022-09-03T04:21:26;5.35;;;4.85;;
24409;SDS011;12543;53.364;-1.504;2022-09-03T04:23:55;4.72;;;4.25;;
24409;SDS011;12543;53.364;-1.504;2022-09-03T04:28:52;5.55;;;4.82;;
24409;SDS011;12543;53.364;-1.504;2022-09-03T04:31:19;5.45;;;4.95;;
24409;SDS011;12543;53.364;-1.504;2022-09-03T04:33:47;7.07;;;5.30;;
24409;SDS011;12543;53.364;-1.504;2022-09-03T04:36:15;6.38;;;4.25;;
24409;SDS011;12543;53.364;-1.504;2022-09-03T04:38:46;5.40;;;4.93;;
24409;SDS011;12543;53.364;-1.504;2022-09-03T04:41:17;4.43;;;4.05;;
24409;SDS011;12543;53.364;-1.504;2022-09-03T04:43:45;5.53;;;4.60;;
24409;SDS011;12543;53.364;-1.504;2022-09-03T04:46:17;6.78;;;5.45;;
24409;SDS011;12543;53.364;-1.504;2022-09-03T04:48:46;5.50;;;4.97;;
24409;SDS011;12543;53.364;-1.504;2022-09-03T04:51:19;6.00;;;5.38;;
24409;SDS011;12543;53.364;-1.504;2022-09-03T04:53:56;5.13;;;4.60;;
24409;SDS011;12543;53.364;-1.504;2022-09-03T04:56:26;5.15;;;4.68;;
24409;SDS011;12543;53.364;-1.504;2022-09-03T04:58:55;5.45;;;4.90;;
24409;SDS011;12543;53.364;-1.504;2022-09-03T05:01:25;6.43;;;5.18;;
24409;SDS011;12543;53.364;-1.504;2022-09-03T05:03:54;6.10;;;5.50;;
24409;SDS011;12543;53.364;-1.504;2022-09-03T05:08:53;4.80;;;4.40;;
24409;SDS011;12543;53.364;-1.504;2022-09-03T05:11:22;4.93;;;4.47;;
24409;SDS011;12543;53.364;-1.504;2022-09-03T05:13:51;5.40;;;4.90;;
24409;SDS011;12543;53.364;-1.504;2022-09-03T05:16:20;5.80;;;5.30;;
24409;SDS011;12543;53.364;-1.504;2022-09-03T05:18:52;5.68;;;5.07;;
24409;SDS011;12543;53.364;-1.504;2022-09-03T05:21:21;7.20;;;5.55;;
24409;SDS011;12543;53.364;-1.504;2022-09-03T05:23:49;5.72;;;5.20;;
24409;SDS011;12543;53.364;-1.504;2022-09-03T05:26:18;5.93;;;5.25;;
24409;SDS011;12543;53.364;-1.504;2022-09-03T05:28:54;7.05;;;5.35;;
24409;SDS011;12543;53.364;-1.504;2022-09-03T05:31:26;5.20;;;4.70;;
24409;SDS011;12543;53.364;-1.504;2022-09-03T05:33:57;5.28;;;4.82;;
24409;SDS011;12543;53.364;-1.504;2022-09-03T05:36:28;5.60;;;4.95;;
24409;SDS011;12543;53.364;-1.504;2022-09-03T05:38:57;5.85;;;5.35;;
24409;SDS011;12543;53.364;-1.504;2022-09-03T05:41:25;5.07;;;4.60;;
24409;SDS011;12543;53.364;-1.504;2022-09-03T05:43:53;5.78;;;5.18;;
24409;SDS011;12543;53.364;-1.504;2022-09-03T05:46:22;5.10;;;4.60;;
24409;SDS011;12543;53.364;-1.504;2022-09-03T05:48:56;5.80;;;5.30;;
24409;SDS011;12543;53.364;-1.504;2022-09-03T05:51:24;5.97;;;5.15;;
24409;SDS011;12543;53.364;-1.504;2022-09-03T05:53:52;4.95;;;4.28;;
24409;SDS011;12543;53.364;-1.504;2022-09-03T05:56:21;5.28;;;4.78;;
24409;SDS011;12543;53.364;-1.504;2022-09-03T05:58:51;5.80;;;4.63;;
24409;SDS011;12543;53.364;-1.504;2022-09-03T06:01:29;5.28;;;4.78;;
24409;SDS011;12543;53.364;-1.504;2022-09-03T06:04:02;5.28;;;4.78;;
24409;SDS011;12543;53.364;-1.504;2022-09-03T06:06:32;4.82;;;4.43;;
24409;SDS011;12543;53.364;-1.504;2022-09-03T06:09:05;5.65;;;4.97;;
24409;SDS011;12543;53.364;-1.504;2022-09-03T06:11:34;4.95;;;4.45;;
24409;SDS011;12543;53.364;-1.504;2022-09-03T06:14:05;5.10;;;4.60;;
24409;SDS011;12543;53.364;-1.504;2022-09-03T06:16:35;4.90;;;4.38;;
24409;SDS011;12543;53.364;-1.504;2022-09-03T06:19:04;4.97;;;4.47;;
24409;SDS011;12543;53.364;-1.504;2022-09-03T06:21:35;5.95;;;5.07;;
24409;SDS011;12543;53.364;-1.504;2022-09-03T06:24:09;6.28;;;5.63;;
24409;SDS011;12543;53.364;-1.504;2022-09-03T06:26:40;5.00;;;4.50;;
24409;SDS011;12543;53.364;-1.504;2022-09-03T06:29:08;5.55;;;5.00;;
24409;SDS011;12543;53.364;-1.504;2022-09-03T06:31:36;7.35;;;5.85;;
24409;SDS011;12543;53.364;-1.504;2022-09-03T06:34:05;7.47;;;6.78;;
24409;SDS011;12543;53.364;-1.504;2022-09-03T06:36:32;7.00;;;6.30;;
24409;SDS011;12543;53.364;-1.504;2022-09-03T06:38:59;7.25;;;5.65;;
24409;SDS011;12543;53.364;-1.504;2022-09-03T06:41:28;6.22;;;5.63;;
24409;SDS011;12543;53.364;-1.504;2022-09-03T06:43:58;5.38;;;4.88;;
24409;SDS011;12543;53.364;-1.504;2022-09-03T06:46:34;6.07;;;5.28;;
24409;SDS011;12543;53.364;-1.504;2022-09-03T06:49:04;5.05;;;4.55;;
24409;SDS011;12543;53.364;-1.504;2022-09-03T06:51:31;5.45;;;4.60;;
24409;SDS011;12543;53.364;-1.504;2022-09-03T06:54:08;5.10;;;4.60;;
24409;SDS011;12543;53.364;-1.504;2022-09-03T06:56:37;6.95;;;5.45;;
24409;SDS011;12543;53.364;-1.504;2022-09-03T06:59:07;6.50;;;5.85;;
24409;SDS011;12543;53.364;-1.504;2022-09-03T07:01:39;5.05;;;4.65;;
24409;SDS011;12543;53.364;-1.504;2022-09-03T07:04:09;5.88;;;5.28;;
24409;SDS011;12543;53.364;-1.504;2022-09-03T07:06:38;7.40;;;6.00;;
24409;SDS011;12543;53.364;-1.504;2022-09-03T07:09:09;6.20;;;5.60;;
24409;SDS011;12543;53.364;-1.504;2022-09-03T07:11:37;6.38;;;5.60;;
24409;SDS011;12543;53.364;-1.504;2022-09-03T07:14:13;6.70;;;6.05;;
24409;SDS011;12543;53.364;-1.504;2022-09-03T07:16:41;6.63;;;6.00;;
24409;SDS011;12543;53.364;-1.504;2022-09-03T07:19:09;7.67;;;6.87;;
24409;SDS011;12543;53.364;-1.504;2022-09-03T07:21:37;6.38;;;5.78;;
24409;SDS011;12543;53.364;-1.504;2022-09-03T07:24:14;6.47;;;5.38;;
24409;SDS011;12543;53.364;-1.504;2022-09-03T07:26:42;4.63;;;4.10;;
24409;SDS011;12543;53.364;-1.504;2022-09-03T07:29:11;5.57;;;5.07;;
24409;SDS011;12543;53.364;-1.504;2022-09-03T07:31:41;5.60;;;4.45;;
24409;SDS011;12543;53.364;-1.504;2022-09-03T07:34:10;6.13;;;5.53;;
24409;SDS011;12543;53.364;-1.504;2022-09-03T07:36:39;6.18;;;5.15;;
24409;SDS011;12543;53.364;-1.504;2022-09-03T07:39:14;6.03;;;5.43;;
24409;SDS011;12543;53.364;-1.504;2022-09-03T07:41:43;6.10;;;5.50;;
24409;SDS011;12543;53.364;-1.504;2022-09-03T07:46:41;5.20;;;4.68;;
24409;SDS011;12543;53.364;-1.504;2022-09-03T07:49:11;5.78;;;5.20;;
24409;SDS011;12543;53.364;-1.504;2022-09-03T07:51:38;4.60;;;4.07;;
24409;SDS011;12543;53.364;-1.504;2022-09-03T07:54:09;5.05;;;4.55;;
24409;SDS011;12543;53.364;-1.504;2022-09-03T07:56:38;5.45;;;4.68;;
24409;SDS011;12543;53.364;-1.504;2022-09-03T07:59:06;5.78;;;5.15;;
24409;SDS011;12543;53.364;-1.504;2022-09-03T08:01:34;7.53;;;6.55;;
24409;SDS011;12543;53.364;-1.504;2022-09-03T08:04:04;6.13;;;5.53;;
24409;SDS011;12543;53.364;-1.504;2022-09-03T08:06:38;5.57;;;4.97;;
24409;SDS011;12543;53.364;-1.504;2022-09-03T08:09:07;6.40;;;5.72;;
24409;SDS011;12543;53.364;-1.504;2022-09-03T08:11:37;8.15;;;7.30;;
24409;SDS011;12543;53.364;-1.504;2022-09-03T08:14:07;9.00;;;7.35;;
24409;SDS011;12543;53.364;-1.504;2022-09-03T08:16:40;6.63;;;5.93;;
24409;SDS011;12543;53.364;-1.504;2022-09-03T08:19:13;8.00;;;6.13;;
24409;SDS011;12543;53.364;-1.504;2022-09-03T08:21:43;5.82;;;5.30;;
24409;SDS011;12543;53.364;-1.504;2022-09-03T08:24:11;8.43;;;7.60;;
24409;SDS011;12543;53.364;-1.504;2022-09-03T08:26:41;9.23;;;7.97;;
24409;SDS011;12543;53.364;-1.504;2022-09-03T08:29:17;8.45;;;7.60;;
24409;SDS011;12543;53.364;-1.504;2022-09-03T08:31:44;11.48;;;10.00;;
24409;SDS011;12543;53.364;-1.504;2022-09-03T08:34:11;9.95;;;8.07;;
24409;SDS011;12543;53.364;-1.504;2022-09-03T08:36:40;8.65;;;7.75;;
24409;SDS011;12543;53.364;-1.504;2022-09-03T08:39:08;7.63;;;6.85;;
24409;SDS011;12543;53.364;-1.504;2022-09-03T08:42:11;5.85;;;5.35;;
24409;SDS011;12543;53.364;-1.504;2022-09-03T08:44:55;6.43;;;5.82;;
24409;SDS011;12543;53.364;-1.504;2022-09-03T08:47:31;6.65;;;5.65;;
24409;SDS011;12543;53.364;-1.504;2022-09-03T08:52:49;6.63;;;6.03;;
24409;SDS011;12543;53.364;-1.504;2022-09-03T08:58:25;5.93;;;5.40;;
24409;SDS011;12543;53.364;-1.504;2022-09-03T09:14:35;7.68;;;6.90;;
24409;SDS011;12543;53.364;-1.504;2022-09-03T09:17:16;9.32;;;7.40;;
24409;SDS011;12543;53.364;-1.504;2022-09-03T09:20:05;9.02;;;7.90;;
24409;SDS011;12543;53.364;-1.504;2022-09-03T09:22:55;7.88;;;6.05;;
24409;SDS011;12543;53.364;-1.504;2022-09-03T09:25:28;12.32;;;11.00;;
24409;SDS011;12543;53.364;-1.504;2022-09-03T09:28:00;12.40;;;9.52;;
24409;SDS011;12543;53.364;-1.504;2022-09-03T09:30:30;11.10;;;9.30;;
24409;SDS011;12543;53.364;-1.504;2022-09-03T09:32:58;8.35;;;7.50;;
24409;SDS011;12543;53.364;-1.504;2022-09-03T09:35:26;10.10;;;8.75;;
24409;SDS011;12543;53.364;-1.504;2022-09-03T09:37:54;11.93;;;10.73;;
24409;SDS011;12543;53.364;-1.504;2022-09-03T09:43:07;9.55;;;8.40;;
24409;SDS011;12543;53.364;-1.504;2022-09-03T09:45:42;10.50;;;9.35;;
24409;SDS011;12543;53.364;-1.504;2022-09-03T09:50:47;10.27;;;9.18;;
24409;SDS011;12543;53.364;-1.504;2022-09-03T09:53:16;12.35;;;9.70;;
24409;SDS011;12543;53.364;-1.504;2022-09-03T09:55:47;10.48;;;9.40;;
24409;SDS011;12543;53.364;-1.504;2022-09-03T09:58:20;8.82;;;7.47;;
24409;SDS011;12543;53.364;-1.504;2022-09-03T10:00:56;14.80;;;12.43;;
24409;SDS011;12543;53.364;-1.504;2022-09-03T10:03:51;13.60;;;11.30;;
24409;SDS011;12543;53.364;-1.504;2022-09-03T10:06:27;14.18;;;12.48;;
24409;SDS011;12543;53.364;-1.504;2022-09-03T10:09:19;12.63;;;11.23;;
24409;SDS011;12543;53.364;-1.504;2022-09-03T10:14:42;8.88;;;7.22;;
24409;SDS011;12543;53.364;-1.504;2022-09-03T10:17:17;8.20;;;7.40;;
24409;SDS011;12543;53.364;-1.504;2022-09-03T10:20:03;8.90;;;6.97;;
24409;SDS011;12543;53.364;-1.504;2022-09-03T10:28:40;8.18;;;7.40;;
24409;SDS011;12543;53.364;-1.504;2022-09-03T10:31:12;7.25;;;6.25;;
24409;SDS011;12543;53.364;-1.504;2022-09-03T10:34:01;11.82;;;9.27;;
24409;SDS011;12543;53.364;-1.504;2022-09-03T10:36:59;9.73;;;8.02;;
24409;SDS011;12543;53.364;-1.504;2022-09-03T10:45:18;8.45;;;7.63;;
24409;SDS011;12543;53.364;-1.504;2022-09-03T10:50:48;9.10;;;7.93;;
24409;SDS011;12543;53.364;-1.504;2022-09-03T10:56:04;10.63;;;9.20;;
24409;SDS011;12543;53.364;-1.504;2022-09-03T10:59:41;11.07;;;9.80;;
24409;SDS011;12543;53.364;-1.504;2022-09-03T11:07:21;7.70;;;6.88;;
24409;SDS011;12543;53.364;-1.504;2022-09-03T11:10:10;7.88;;;7.07;;
24409;SDS011;12543;53.364;-1.504;2022-09-03T11:15:39;10.30;;;8.57;;
24409;SDS011;12543;53.364;-1.504;2022-09-03T11:18:23;6.20;;;5.45;;
24409;SDS011;12543;53.364;-1.504;2022-09-03T11:20:52;11.07;;;7.97;;
24409;SDS011;12543;53.364;-1.504;2022-09-03T11:23:28;6.57;;;5.88;;
24409;SDS011;12543;53.364;-1.504;2022-09-03T11:26:12;7.07;;;6.25;;
24409;SDS011;12543;53.364;-1.504;2022-09-03T11:31:55;4.97;;;4.35;;
24409;SDS011;12543;53.364;-1.504;2022-09-03T11:34:49;6.38;;;5.28;;
24409;SDS011;12543;53.364;-1.504;2022-09-03T11:37:21;5.93;;;5.32;;
24409;SDS011;12543;53.364;-1.504;2022-09-03T11:42:35;6.20;;;5.10;;
24409;SDS011;12543;53.364;-1.504;2022-09-03T11:47:55;8.18;;;5.32;;
24409;SDS011;12543;53.364;-1.504;2022-09-03T11:50:26;7.03;;;6.28;;
24409;SDS011;12543;53.364;-1.504;2022-09-03T11:53:08;6.72;;;5.90;;
24409;SDS011;12543;53.364;-1.504;2022-09-03T11:55:54;5.55;;;5.05;;
24409;SDS011;12543;53.364;-1.504;2022-09-03T11:58:28;4.45;;;3.45;;
24409;SDS011;12543;53.364;-1.504;2022-09-03T12:01:04;5.75;;;4.30;;
24409;SDS011;12543;53.364;-1.504;2022-09-03T12:03:58;4.65;;;3.33;;
24409;SDS011;12543;53.364;-1.504;2022-09-03T12:20:13;7.20;;;4.18;;
24409;SDS011;12543;53.364;-1.504;2022-09-03T12:22:41;7.25;;;4.70;;
24409;SDS011;12543;53.364;-1.504;2022-09-03T12:25:12;6.90;;;4.90;;
24409;SDS011;12543;53.364;-1.504;2022-09-03T12:27:43;4.18;;;3.60;;
24409;SDS011;12543;53.364;-1.504;2022-09-03T12:30:28;4.70;;;4.25;;
24409;SDS011;12543;53.364;-1.504;2022-09-03T12:33:03;5.25;;;3.88;;
24409;SDS011;12543;53.364;-1.504;2022-09-03T12:35:32;4.20;;;3.80;;
24409;SDS011;12543;53.364;-1.504;2022-09-03T12:38:23;3.92;;;3.28;;
24409;SDS011;12543;53.364;-1.504;2022-09-03T12:40:53;5.18;;;4.07;;
24409;SDS011;12543;53.364;-1.504;2022-09-03T12:43:40;4.93;;;3.40;;
24409;SDS011;12543;53.364;-1.504;2022-09-03T12:46:17;4.25;;;3.85;;
24409;SDS011;12543;53.364;-1.504;2022-09-03T12:49:00;4.70;;;3.50;;
24409;SDS011;12543;53.364;-1.504;2022-09-03T12:51:50;3.28;;;2.90;;
24409;SDS011;12543;53.364;-1.504;2022-09-03T12:54:29;2.88;;;2.67;;
24409;SDS011;12543;53.364;-1.504;2022-09-03T12:56:57;6.03;;;3.20;;
24409;SDS011;12543;53.364;-1.504;2022-09-03T13:01:59;2.88;;;2.55;;
24409;SDS011;12543;53.364;-1.504;2022-09-03T13:04:32;2.72;;;2.33;;
24409;SDS011;12543;53.364;-1.504;2022-09-03T13:07:05;2.65;;;2.35;;
24409;SDS011;12543;53.364;-1.504;2022-09-03T13:09:46;3.00;;;2.70;;
24409;SDS011;12543;53.364;-1.504;2022-09-03T13:12:21;2.30;;;2.10;;
24409;SDS011;12543;53.364;-1.504;2022-09-03T13:14:55;2.58;;;2.00;;
24409;SDS011;12543;53.364;-1.504;2022-09-03T13:17:29;4.75;;;2.95;;
24409;SDS011;12543;53.364;-1.504;2022-09-03T13:20:23;2.38;;;2.17;;
24409;SDS011;12543;53.364;-1.504;2022-09-03T13:31:02;3.33;;;2.60;;
24409;SDS011;12543;53.364;-1.504;2022-09-03T13:36:20;2.88;;;2.38;;
24409;SDS011;12543;53.364;-1.504;2022-09-03T13:42:17;3.05;;;1.70;;
24409;SDS011;12543;53.364;-1.504;2022-09-03T13:44:43;2.28;;;2.00;;
24409;SDS011;12543;53.364;-1.504;2022-09-03T13:58:43;1.52;;;1.42;;
24409;SDS011;12543;53.364;-1.504;2022-09-03T14:01:21;1.60;;;1.50;;
24409;SDS011;12543;53.364;-1.504;2022-09-03T14:04:11;2.47;;;1.90;;
24409;SDS011;12543;53.364;-1.504;2022-09-03T14:07:06;2.80;;;2.20;;
24409;SDS011;12543;53.364;-1.504;2022-09-03T14:09:45;2.80;;;1.77;;
24409;SDS011;12543;53.364;-1.504;2022-09-03T14:12:33;2.40;;;2.00;;
24409;SDS011;12543;53.364;-1.504;2022-09-03T14:15:19;1.92;;;1.63;;
24409;SDS011;12543;53.364;-1.504;2022-09-03T14:17:55;1.58;;;1.48;;
24409;SDS011;12543;53.364;-1.504;2022-09-03T14:20:58;1.60;;;1.50;;
24409;SDS011;12543;53.364;-1.504;2022-09-03T14:23:33;2.05;;;1.92;;
24409;SDS011;12543;53.364;-1.504;2022-09-03T14:26:16;1.83;;;1.67;;
24409;SDS011;12543;53.364;-1.504;2022-09-03T14:31:45;2.03;;;1.83;;
24409;SDS011;12543;53.364;-1.504;2022-09-03T14:34:35;2.20;;;1.90;;
24409;SDS011;12543;53.364;-1.504;2022-09-03T14:42:54;2.15;;;1.85;;
24409;SDS011;12543;53.364;-1.504;2022-09-03T14:56:49;1.70;;;1.48;;
24409;SDS011;12543;53.364;-1.504;2022-09-03T15:02:47;2.03;;;1.75;;
24409;SDS011;12543;53.364;-1.504;2022-09-03T15:05:26;1.30;;;1.20;;
24409;SDS011;12543;53.364;-1.504;2022-09-03T15:11:25;1.60;;;1.50;;
24409;SDS011;12543;53.364;-1.504;2022-09-03T15:14:12;1.42;;;1.33;;
24409;SDS011;12543;53.364;-1.504;2022-09-03T15:16:58;1.80;;;1.70;;
24409;SDS011;12543;53.364;-1.504;2022-09-03T15:25:27;2.70;;;1.60;;
24409;SDS011;12543;53.364;-1.504;2022-09-03T15:30:55;1.50;;;1.40;;
24409;SDS011;12543;53.364;-1.504;2022-09-03T15:36:45;1.60;;;1.50;;
24409;SDS011;12543;53.364;-1.504;2022-09-03T15:39:27;1.77;;;1.67;;
24409;SDS011;12543;53.364;-1.504;2022-09-03T15:41:59;2.33;;;1.63;;
24409;SDS011;12543;53.364;-1.504;2022-09-03T15:44:40;1.50;;;1.40;;
24409;SDS011;12543;53.364;-1.504;2022-09-03T15:47:12;1.58;;;1.48;;
24409;SDS011;12543;53.364;-1.504;2022-09-03T15:50:33;1.58;;;1.48;;
24409;SDS011;12543;53.364;-1.504;2022-09-03T15:55:40;2.30;;;1.83;;
24409;SDS011;12543;53.364;-1.504;2022-09-03T15:58:33;1.40;;;1.30;;
24409;SDS011;12543;53.364;-1.504;2022-09-03T16:01:03;1.40;;;1.30;;
24409;SDS011;12543;53.364;-1.504;2022-09-03T16:03:46;2.08;;;1.70;;
24409;SDS011;12543;53.364;-1.504;2022-09-03T16:06:32;2.03;;;1.83;;
24409;SDS011;12543;53.364;-1.504;2022-09-03T16:15:27;2.30;;;1.80;;
24409;SDS011;12543;53.364;-1.504;2022-09-03T16:18:01;1.95;;;1.85;;
24409;SDS011;12543;53.364;-1.504;2022-09-03T16:25:33;2.60;;;2.40;;
24409;SDS011;12543;53.364;-1.504;2022-09-03T16:28:12;2.38;;;2.17;;
24409;SDS011;12543;53.364;-1.504;2022-09-03T16:39:25;2.30;;;2.17;;
24409;SDS011;12543;53.364;-1.504;2022-09-03T16:47:38;3.72;;;2.78;;
24409;SDS011;12543;53.364;-1.504;2022-09-03T16:50:27;2.45;;;2.25;;
24409;SDS011;12543;53.364;-1.504;2022-09-03T16:53:16;2.65;;;2.45;;
24409;SDS011;12543;53.364;-1.504;2022-09-03T17:15:45;2.78;;;2.58;;
24409;SDS011;12543;53.364;-1.504;2022-09-03T17:18:53;2.65;;;2.45;;
24409;SDS011;12543;53.364;-1.504;2022-09-03T17:21:42;2.85;;;2.65;;
24409;SDS011;12543;53.364;-1.504;2022-09-03T17:32:46;2.78;;;2.55;;
24409;SDS011;12543;53.364;-1.504;2022-09-03T17:38:18;3.35;;;3.05;;
24409;SDS011;12543;53.364;-1.504;2022-09-03T17:41:17;3.33;;;3.03;;
24409;SDS011;12543;53.364;-1.504;2022-09-03T17:44:01;3.40;;;3.10;;
24409;SDS011;12543;53.364;-1.504;2022-09-03T17:49:10;3.40;;;3.00;;
24409;SDS011;12543;53.364;-1.504;2022-09-03T17:51:49;2.78;;;2.58;;
24409;SDS011;12543;53.364;-1.504;2022-09-03T17:59:48;2.60;;;2.40;;
24409;SDS011;12543;53.364;-1.504;2022-09-03T18:05:17;2.65;;;2.45;;
24409;SDS011;12543;53.364;-1.504;2022-09-03T18:10:42;3.47;;;2.50;;
24409;SDS011;12543;53.364;-1.504;2022-09-03T18:16:20;3.13;;;2.58;;
24409;SDS011;12543;53.364;-1.504;2022-09-03T18:21:45;2.08;;;1.95;;
24409;SDS011;12543;53.364;-1.504;2022-09-03T18:24:34;2.10;;;2.00;;
24409;SDS011;12543;53.364;-1.504;2022-09-03T18:30:24;2.80;;;2.60;;
24409;SDS011;12543;53.364;-1.504;2022-09-03T18:33:12;2.67;;;2.47;;
24409;SDS011;12543;53.364;-1.504;2022-09-03T18:35:58;2.88;;;2.35;;
24409;SDS011;12543;53.364;-1.504;2022-09-03T18:38:43;2.20;;;2.00;;
24409;SDS011;12543;53.364;-1.504;2022-09-03T18:57:24;2.25;;;2.05;;
24409;SDS011;12543;53.364;-1.504;2022-09-03T19:00:17;1.90;;;1.80;;
24409;SDS011;12543;53.364;-1.504;2022-09-03T19:09:30;1.95;;;1.83;;
24409;SDS011;12543;53.364;-1.504;2022-09-03T19:12:33;2.08;;;1.45;;
24409;SDS011;12543;53.364;-1.504;2022-09-03T19:15:26;1.77;;;1.55;;
24409;SDS011;12543;53.364;-1.504;2022-09-03T19:18:27;1.60;;;1.50;;
24409;SDS011;12543;53.364;-1.504;2022-09-03T19:24:03;2.78;;;1.90;;
24409;SDS011;12543;53.364;-1.504;2022-09-03T19:27:00;1.60;;;1.42;;
24409;SDS011;12543;53.364;-1.504;2022-09-03T19:30:23;1.70;;;1.60;;
24409;SDS011;12543;53.364;-1.504;2022-09-03T19:33:37;1.92;;;1.73;;
24409;SDS011;12543;53.364;-1.504;2022-09-03T19:46:13;2.35;;;1.83;;
24409;SDS011;12543;53.364;-1.504;2022-09-03T19:49:15;2.20;;;1.95;;
24409;SDS011;12543;53.364;-1.504;2022-09-03T19:55:09;2.83;;;2.30;;
24409;SDS011;12543;53.364;-1.504;2022-09-03T19:57:59;2.33;;;2.15;;
24409;SDS011;12543;53.364;-1.504;2022-09-03T20:01:06;2.42;;;1.98;;
24409;SDS011;12543;53.364;-1.504;2022-09-03T20:03:54;2.35;;;2.15;;
24409;SDS011;12543;53.364;-1.504;2022-09-03T20:06:42;2.50;;;2.30;;
24409;SDS011;12543;53.364;-1.504;2022-09-03T20:09:31;2.05;;;1.88;;
24409;SDS011;12543;53.364;-1.504;2022-09-03T20:12:20;2.60;;;2.40;;
24409;SDS011;12543;53.364;-1.504;2022-09-03T20:14:49;2.15;;;2.05;;
24409;SDS011;12543;53.364;-1.504;2022-09-03T20:17:20;2.20;;;2.10;;
24409;SDS011;12543;53.364;-1.504;2022-09-03T20:22:52;2.53;;;2.33;;
24409;SDS011;12543;53.364;-1.504;2022-09-03T20:30:49;2.00;;;1.90;;
24409;SDS011;12543;53.364;-1.504;2022-09-03T20:45:17;3.65;;;2.15;;
24409;SDS011;12543;53.364;-1.504;2022-09-03T20:56:13;2.00;;;1.88;;
24409;SDS011;12543;53.364;-1.504;2022-09-03T21:01:50;2.30;;;2.10;;
24409;SDS011;12543;53.364;-1.504;2022-09-03T21:04:46;2.47;;;2.20;;
24409;SDS011;12543;53.364;-1.504;2022-09-03T21:24:21;2.85;;;2.22;;
24409;SDS011;12543;53.364;-1.504;2022-09-03T21:27:07;2.15;;;2.05;;
24409;SDS011;12543;53.364;-1.504;2022-09-03T21:29:40;3.35;;;2.20;;
24409;SDS011;12543;53.364;-1.504;2022-09-03T21:32:21;2.00;;;1.90;;